sensor_id;sensor_type;location;lat;lon;timestamp;P1;durP1;ratioP1;P2;durP2;ratioP2
12467;SDS011;57850;52.922;6.256;2023-07-30T00:01:29;11.00;;;5.22;;
12467;SDS011;57850;52.922;6.256;2023-07-30T00:03:55;13.70;;;4.90;;
12467;SDS011;57850;52.922;6.256;2023-07-30T00:06:22;9.07;;;5.20;;
12467;SDS011;57850;52.922;6.256;2023-07-30T00:08:50;10.70;;;5.40;;
12467;SDS011;57850;52.922;6.256;2023-07-30T00:11:16;15.15;;;5.50;;
12467;SDS011;57850;52.922;6.256;2023-07-30T00:13:43;9.57;;;5.10;;
12467;SDS011;57850;52.922;6.256;2023-07-30T00:16:10;16.23;;;5.32;;
12467;SDS011;57850;52.922;6.256;2023-07-30T00:18:37;12.88;;;4.63;;
12467;SDS011;57850;52.922;6.256;2023-07-30T00:21:04;13.35;;;4.93;;
12467;SDS011;57850;52.922;6.256;2023-07-30T00:23:30;16.77;;;5.40;;
12467;SDS011;57850;52.922;6.256;2023-07-30T00:25:58;13.00;;;4.57;;
12467;SDS011;57850;52.922;6.256;2023-07-30T00:28:25;20.02;;;6.10;;
12467;SDS011;57850;52.922;6.256;2023-07-30T00:30:51;13.07;;;6.35;;
12467;SDS011;57850;52.922;6.256;2023-07-30T00:33:18;13.13;;;4.80;;
12467;SDS011;57850;52.922;6.256;2023-07-30T00:35:44;17.55;;;5.22;;
12467;SDS011;57850;52.922;6.256;2023-07-30T00:38:11;14.85;;;5.00;;
12467;SDS011;57850;52.922;6.256;2023-07-30T00:40:39;15.85;;;6.00;;
12467;SDS011;57850;52.922;6.256;2023-07-30T00:43:07;16.27;;;5.28;;
12467;SDS011;57850;52.922;6.256;2023-07-30T00:45:34;15.45;;;6.20;;
12467;SDS011;57850;52.922;6.256;2023-07-30T00:48:01;13.10;;;5.53;;
12467;SDS011;57850;52.922;6.256;2023-07-30T00:50:28;16.67;;;5.80;;
12467;SDS011;57850;52.922;6.256;2023-07-30T00:52:55;19.63;;;5.30;;
12467;SDS011;57850;52.922;6.256;2023-07-30T00:55:22;25.02;;;6.63;;
12467;SDS011;57850;52.922;6.256;2023-07-30T00:57:49;17.02;;;5.47;;
12467;SDS011;57850;52.922;6.256;2023-07-30T01:00:17;14.35;;;6.20;;
12467;SDS011;57850;52.922;6.256;2023-07-30T01:02:44;18.25;;;5.10;;
12467;SDS011;57850;52.922;6.256;2023-07-30T01:05:11;18.58;;;4.70;;
12467;SDS011;57850;52.922;6.256;2023-07-30T01:07:38;21.15;;;5.43;;
12467;SDS011;57850;52.922;6.256;2023-07-30T01:10:05;12.65;;;5.78;;
12467;SDS011;57850;52.922;6.256;2023-07-30T01:12:32;15.88;;;5.57;;
12467;SDS011;57850;52.922;6.256;2023-07-30T01:15:00;17.05;;;6.18;;
12467;SDS011;57850;52.922;6.256;2023-07-30T01:17:29;16.88;;;5.35;;
12467;SDS011;57850;52.922;6.256;2023-07-30T01:19:56;16.73;;;5.78;;
12467;SDS011;57850;52.922;6.256;2023-07-30T01:22:24;15.55;;;4.93;;
12467;SDS011;57850;52.922;6.256;2023-07-30T01:24:51;20.75;;;5.70;;
12467;SDS011;57850;52.922;6.256;2023-07-30T01:27:19;16.58;;;5.30;;
12467;SDS011;57850;52.922;6.256;2023-07-30T01:29:51;12.85;;;5.05;;
12467;SDS011;57850;52.922;6.256;2023-07-30T01:32:19;16.80;;;5.10;;
12467;SDS011;57850;52.922;6.256;2023-07-30T01:34:50;25.75;;;5.63;;
12467;SDS011;57850;52.922;6.256;2023-07-30T01:37:18;22.80;;;5.10;;
12467;SDS011;57850;52.922;6.256;2023-07-30T01:39:48;26.48;;;6.35;;
12467;SDS011;57850;52.922;6.256;2023-07-30T01:42:15;18.20;;;5.72;;
12467;SDS011;57850;52.922;6.256;2023-07-30T01:44:42;20.60;;;5.88;;
12467;SDS011;57850;52.922;6.256;2023-07-30T01:47:09;19.00;;;5.55;;
12467;SDS011;57850;52.922;6.256;2023-07-30T01:49:35;25.25;;;5.70;;
12467;SDS011;57850;52.922;6.256;2023-07-30T01:52:02;18.25;;;4.53;;
12467;SDS011;57850;52.922;6.256;2023-07-30T01:54:29;17.13;;;5.13;;
12467;SDS011;57850;52.922;6.256;2023-07-30T01:56:57;22.58;;;5.30;;
12467;SDS011;57850;52.922;6.256;2023-07-30T01:59:23;20.90;;;5.22;;
12467;SDS011;57850;52.922;6.256;2023-07-30T02:01:50;16.98;;;5.18;;
12467;SDS011;57850;52.922;6.256;2023-07-30T02:04:17;20.92;;;5.60;;
12467;SDS011;57850;52.922;6.256;2023-07-30T02:06:43;19.55;;;4.95;;
12467;SDS011;57850;52.922;6.256;2023-07-30T02:09:10;21.48;;;5.07;;
12467;SDS011;57850;52.922;6.256;2023-07-30T02:11:37;19.75;;;5.82;;
12467;SDS011;57850;52.922;6.256;2023-07-30T02:14:05;18.05;;;5.20;;
12467;SDS011;57850;52.922;6.256;2023-07-30T02:16:31;17.17;;;4.97;;
12467;SDS011;57850;52.922;6.256;2023-07-30T02:18:58;17.48;;;5.05;;
12467;SDS011;57850;52.922;6.256;2023-07-30T02:21:25;23.42;;;5.13;;
12467;SDS011;57850;52.922;6.256;2023-07-30T02:23:51;19.85;;;5.15;;
12467;SDS011;57850;52.922;6.256;2023-07-30T02:26:18;23.20;;;5.15;;
12467;SDS011;57850;52.922;6.256;2023-07-30T02:28:44;15.05;;;5.72;;
12467;SDS011;57850;52.922;6.256;2023-07-30T02:31:12;15.25;;;4.50;;
12467;SDS011;57850;52.922;6.256;2023-07-30T02:33:39;16.38;;;5.05;;
12467;SDS011;57850;52.922;6.256;2023-07-30T02:36:05;18.98;;;5.72;;
12467;SDS011;57850;52.922;6.256;2023-07-30T02:38:32;11.85;;;4.80;;
12467;SDS011;57850;52.922;6.256;2023-07-30T02:40:59;19.73;;;5.45;;
12467;SDS011;57850;52.922;6.256;2023-07-30T02:43:25;17.48;;;4.70;;
12467;SDS011;57850;52.922;6.256;2023-07-30T02:45:52;31.30;;;7.72;;
12467;SDS011;57850;52.922;6.256;2023-07-30T02:48:19;20.50;;;4.93;;
12467;SDS011;57850;52.922;6.256;2023-07-30T02:50:46;19.13;;;5.75;;
12467;SDS011;57850;52.922;6.256;2023-07-30T02:53:13;14.27;;;5.10;;
12467;SDS011;57850;52.922;6.256;2023-07-30T02:55:39;18.63;;;4.75;;
12467;SDS011;57850;52.922;6.256;2023-07-30T02:58:06;21.65;;;5.25;;
12467;SDS011;57850;52.922;6.256;2023-07-30T03:00:33;17.52;;;5.45;;
12467;SDS011;57850;52.922;6.256;2023-07-30T03:02:59;18.23;;;4.72;;
12467;SDS011;57850;52.922;6.256;2023-07-30T03:05:27;16.83;;;4.55;;
12467;SDS011;57850;52.922;6.256;2023-07-30T03:07:54;16.30;;;4.88;;
12467;SDS011;57850;52.922;6.256;2023-07-30T03:10:20;27.95;;;6.13;;
12467;SDS011;57850;52.922;6.256;2023-07-30T03:12:47;23.55;;;5.63;;
12467;SDS011;57850;52.922;6.256;2023-07-30T03:15:14;20.10;;;6.07;;
12467;SDS011;57850;52.922;6.256;2023-07-30T03:17:40;21.90;;;4.78;;
12467;SDS011;57850;52.922;6.256;2023-07-30T03:20:08;24.40;;;5.07;;
12467;SDS011;57850;52.922;6.256;2023-07-30T03:22:36;16.52;;;5.63;;
12467;SDS011;57850;52.922;6.256;2023-07-30T03:25:03;20.88;;;4.95;;
12467;SDS011;57850;52.922;6.256;2023-07-30T03:27:30;17.67;;;5.55;;
12467;SDS011;57850;52.922;6.256;2023-07-30T03:29:56;19.67;;;4.82;;
12467;SDS011;57850;52.922;6.256;2023-07-30T03:32:23;20.98;;;5.40;;
12467;SDS011;57850;52.922;6.256;2023-07-30T03:34:50;16.42;;;5.35;;
12467;SDS011;57850;52.922;6.256;2023-07-30T03:37:16;19.02;;;4.93;;
12467;SDS011;57850;52.922;6.256;2023-07-30T03:39:44;22.45;;;5.50;;
12467;SDS011;57850;52.922;6.256;2023-07-30T03:42:10;17.35;;;6.47;;
12467;SDS011;57850;52.922;6.256;2023-07-30T03:44:38;21.77;;;5.43;;
12467;SDS011;57850;52.922;6.256;2023-07-30T03:47:04;16.80;;;4.82;;
12467;SDS011;57850;52.922;6.256;2023-07-30T03:49:31;14.77;;;4.65;;
12467;SDS011;57850;52.922;6.256;2023-07-30T03:51:58;20.10;;;4.88;;
12467;SDS011;57850;52.922;6.256;2023-07-30T03:54:25;20.77;;;4.90;;
12467;SDS011;57850;52.922;6.256;2023-07-30T03:56:53;23.75;;;5.45;;
12467;SDS011;57850;52.922;6.256;2023-07-30T03:59:19;17.10;;;5.45;;
12467;SDS011;57850;52.922;6.256;2023-07-30T04:01:46;17.65;;;5.10;;
12467;SDS011;57850;52.922;6.256;2023-07-30T04:04:13;21.02;;;5.57;;
12467;SDS011;57850;52.922;6.256;2023-07-30T04:06:39;18.27;;;5.88;;
12467;SDS011;57850;52.922;6.256;2023-07-30T04:09:07;15.23;;;4.68;;
12467;SDS011;57850;52.922;6.256;2023-07-30T04:11:34;21.10;;;5.15;;
12467;SDS011;57850;52.922;6.256;2023-07-30T04:14:02;20.30;;;5.00;;
12467;SDS011;57850;52.922;6.256;2023-07-30T04:16:30;16.45;;;4.90;;
12467;SDS011;57850;52.922;6.256;2023-07-30T04:18:56;23.13;;;5.72;;
12467;SDS011;57850;52.922;6.256;2023-07-30T04:21:23;25.65;;;5.03;;
12467;SDS011;57850;52.922;6.256;2023-07-30T04:23:49;16.50;;;5.60;;
12467;SDS011;57850;52.922;6.256;2023-07-30T04:26:16;18.90;;;4.88;;
12467;SDS011;57850;52.922;6.256;2023-07-30T04:28:43;16.67;;;5.13;;
12467;SDS011;57850;52.922;6.256;2023-07-30T04:31:11;19.40;;;5.32;;
12467;SDS011;57850;52.922;6.256;2023-07-30T04:33:38;26.25;;;4.93;;
12467;SDS011;57850;52.922;6.256;2023-07-30T04:36:04;16.90;;;5.22;;
12467;SDS011;57850;52.922;6.256;2023-07-30T04:38:32;13.05;;;4.60;;
12467;SDS011;57850;52.922;6.256;2023-07-30T04:40:59;24.08;;;5.90;;
12467;SDS011;57850;52.922;6.256;2023-07-30T04:43:25;14.75;;;4.35;;
12467;SDS011;57850;52.922;6.256;2023-07-30T04:45:52;16.25;;;4.95;;
12467;SDS011;57850;52.922;6.256;2023-07-30T04:48:20;26.67;;;5.82;;
12467;SDS011;57850;52.922;6.256;2023-07-30T04:50:47;14.80;;;4.85;;
12467;SDS011;57850;52.922;6.256;2023-07-30T04:53:13;19.77;;;4.95;;
12467;SDS011;57850;52.922;6.256;2023-07-30T04:55:42;16.85;;;4.65;;
12467;SDS011;57850;52.922;6.256;2023-07-30T04:58:08;14.82;;;5.07;;
12467;SDS011;57850;52.922;6.256;2023-07-30T05:00:35;13.52;;;4.68;;
12467;SDS011;57850;52.922;6.256;2023-07-30T05:03:01;17.25;;;5.20;;
12467;SDS011;57850;52.922;6.256;2023-07-30T05:05:29;15.40;;;5.30;;
12467;SDS011;57850;52.922;6.256;2023-07-30T05:07:56;19.25;;;5.30;;
12467;SDS011;57850;52.922;6.256;2023-07-30T05:10:23;17.05;;;5.43;;
12467;SDS011;57850;52.922;6.256;2023-07-30T05:12:49;16.85;;;5.25;;
12467;SDS011;57850;52.922;6.256;2023-07-30T05:15:16;25.48;;;5.45;;
12467;SDS011;57850;52.922;6.256;2023-07-30T05:17:42;18.67;;;4.82;;
12467;SDS011;57850;52.922;6.256;2023-07-30T05:20:09;17.90;;;4.47;;
12467;SDS011;57850;52.922;6.256;2023-07-30T05:22:38;16.73;;;4.68;;
12467;SDS011;57850;52.922;6.256;2023-07-30T05:25:06;15.90;;;5.45;;
12467;SDS011;57850;52.922;6.256;2023-07-30T05:27:33;12.40;;;5.40;;
12467;SDS011;57850;52.922;6.256;2023-07-30T05:30:01;15.20;;;5.18;;
12467;SDS011;57850;52.922;6.256;2023-07-30T05:32:28;17.13;;;5.18;;
12467;SDS011;57850;52.922;6.256;2023-07-30T05:34:55;22.95;;;4.90;;
12467;SDS011;57850;52.922;6.256;2023-07-30T05:37:21;18.48;;;5.28;;
12467;SDS011;57850;52.922;6.256;2023-07-30T05:39:50;15.38;;;4.72;;
12467;SDS011;57850;52.922;6.256;2023-07-30T05:42:17;19.98;;;5.47;;
12467;SDS011;57850;52.922;6.256;2023-07-30T05:44:43;12.65;;;4.80;;
12467;SDS011;57850;52.922;6.256;2023-07-30T05:47:10;16.98;;;4.90;;
12467;SDS011;57850;52.922;6.256;2023-07-30T05:49:37;13.57;;;4.32;;
12467;SDS011;57850;52.922;6.256;2023-07-30T05:52:05;12.45;;;4.85;;
12467;SDS011;57850;52.922;6.256;2023-07-30T05:54:31;17.70;;;5.32;;
12467;SDS011;57850;52.922;6.256;2023-07-30T05:56:59;19.88;;;4.55;;
12467;SDS011;57850;52.922;6.256;2023-07-30T05:59:26;14.05;;;4.25;;
12467;SDS011;57850;52.922;6.256;2023-07-30T06:01:52;19.58;;;5.07;;
12467;SDS011;57850;52.922;6.256;2023-07-30T06:04:21;16.75;;;5.03;;
12467;SDS011;57850;52.922;6.256;2023-07-30T06:06:48;17.35;;;5.70;;
12467;SDS011;57850;52.922;6.256;2023-07-30T06:09:15;16.73;;;4.80;;
12467;SDS011;57850;52.922;6.256;2023-07-30T06:11:41;15.20;;;4.63;;
12467;SDS011;57850;52.922;6.256;2023-07-30T06:14:10;20.42;;;4.70;;
12467;SDS011;57850;52.922;6.256;2023-07-30T06:16:37;16.05;;;4.43;;
12467;SDS011;57850;52.922;6.256;2023-07-30T06:19:04;15.55;;;4.72;;
12467;SDS011;57850;52.922;6.256;2023-07-30T06:21:31;26.08;;;5.07;;
12467;SDS011;57850;52.922;6.256;2023-07-30T06:23:57;18.58;;;4.40;;
12467;SDS011;57850;52.922;6.256;2023-07-30T06:26:24;17.08;;;5.03;;
12467;SDS011;57850;52.922;6.256;2023-07-30T06:28:50;16.20;;;5.10;;
12467;SDS011;57850;52.922;6.256;2023-07-30T06:31:18;18.42;;;5.47;;
12467;SDS011;57850;52.922;6.256;2023-07-30T06:33:45;14.10;;;4.65;;
12467;SDS011;57850;52.922;6.256;2023-07-30T06:36:12;19.23;;;5.15;;
12467;SDS011;57850;52.922;6.256;2023-07-30T06:38:39;18.20;;;4.90;;
12467;SDS011;57850;52.922;6.256;2023-07-30T06:41:06;16.20;;;4.15;;
12467;SDS011;57850;52.922;6.256;2023-07-30T06:43:32;11.90;;;4.03;;
12467;SDS011;57850;52.922;6.256;2023-07-30T06:45:59;12.77;;;3.65;;
12467;SDS011;57850;52.922;6.256;2023-07-30T06:48:27;15.07;;;4.78;;
12467;SDS011;57850;52.922;6.256;2023-07-30T06:50:53;19.27;;;5.15;;
12467;SDS011;57850;52.922;6.256;2023-07-30T06:53:20;14.98;;;3.63;;
12467;SDS011;57850;52.922;6.256;2023-07-30T06:55:46;16.05;;;4.28;;
12467;SDS011;57850;52.922;6.256;2023-07-30T06:58:13;13.60;;;3.38;;
12467;SDS011;57850;52.922;6.256;2023-07-30T07:00:40;12.13;;;3.92;;
12467;SDS011;57850;52.922;6.256;2023-07-30T07:03:06;10.85;;;3.45;;
12467;SDS011;57850;52.922;6.256;2023-07-30T07:05:34;13.48;;;3.75;;
12467;SDS011;57850;52.922;6.256;2023-07-30T07:08:01;13.25;;;3.25;;
12467;SDS011;57850;52.922;6.256;2023-07-30T07:10:27;10.25;;;3.15;;
12467;SDS011;57850;52.922;6.256;2023-07-30T07:12:54;16.10;;;3.50;;
12467;SDS011;57850;52.922;6.256;2023-07-30T07:15:20;12.55;;;4.07;;
12467;SDS011;57850;52.922;6.256;2023-07-30T07:17:47;9.40;;;3.30;;
12467;SDS011;57850;52.922;6.256;2023-07-30T07:20:14;12.70;;;3.08;;
12467;SDS011;57850;52.922;6.256;2023-07-30T07:22:41;13.43;;;3.80;;
12467;SDS011;57850;52.922;6.256;2023-07-30T07:25:08;11.00;;;3.30;;
12467;SDS011;57850;52.922;6.256;2023-07-30T07:27:35;11.43;;;3.30;;
12467;SDS011;57850;52.922;6.256;2023-07-30T07:30:01;17.35;;;3.83;;
12467;SDS011;57850;52.922;6.256;2023-07-30T07:32:28;13.65;;;3.75;;
12467;SDS011;57850;52.922;6.256;2023-07-30T07:34:55;7.82;;;3.10;;
12467;SDS011;57850;52.922;6.256;2023-07-30T07:37:21;10.60;;;3.40;;
12467;SDS011;57850;52.922;6.256;2023-07-30T07:39:49;13.43;;;3.20;;
12467;SDS011;57850;52.922;6.256;2023-07-30T07:42:16;9.73;;;4.90;;
12467;SDS011;57850;52.922;6.256;2023-07-30T07:44:43;15.43;;;3.20;;
12467;SDS011;57850;52.922;6.256;2023-07-30T07:47:11;13.85;;;3.10;;
12467;SDS011;57850;52.922;6.256;2023-07-30T07:49:38;7.38;;;2.88;;
12467;SDS011;57850;52.922;6.256;2023-07-30T07:52:05;13.60;;;2.90;;
12467;SDS011;57850;52.922;6.256;2023-07-30T07:54:32;8.98;;;2.78;;
12467;SDS011;57850;52.922;6.256;2023-07-30T07:57:01;12.07;;;3.45;;
12467;SDS011;57850;52.922;6.256;2023-07-30T07:59:27;10.43;;;2.83;;
12467;SDS011;57850;52.922;6.256;2023-07-30T08:01:54;13.05;;;2.65;;
12467;SDS011;57850;52.922;6.256;2023-07-30T08:04:20;9.13;;;2.83;;
12467;SDS011;57850;52.922;6.256;2023-07-30T08:06:47;10.25;;;2.72;;
12467;SDS011;57850;52.922;6.256;2023-07-30T08:09:14;8.50;;;3.15;;
12467;SDS011;57850;52.922;6.256;2023-07-30T08:11:41;11.60;;;3.25;;
12467;SDS011;57850;52.922;6.256;2023-07-30T08:14:09;10.18;;;3.53;;
12467;SDS011;57850;52.922;6.256;2023-07-30T08:16:36;13.05;;;2.85;;
12467;SDS011;57850;52.922;6.256;2023-07-30T08:19:02;9.10;;;2.80;;
12467;SDS011;57850;52.922;6.256;2023-07-30T08:21:29;6.80;;;2.88;;
12467;SDS011;57850;52.922;6.256;2023-07-30T08:23:55;13.00;;;3.25;;
12467;SDS011;57850;52.922;6.256;2023-07-30T08:26:22;11.77;;;2.83;;
12467;SDS011;57850;52.922;6.256;2023-07-30T08:28:48;11.02;;;2.85;;
12467;SDS011;57850;52.922;6.256;2023-07-30T08:31:16;6.82;;;2.60;;
12467;SDS011;57850;52.922;6.256;2023-07-30T08:33:43;9.82;;;3.03;;
12467;SDS011;57850;52.922;6.256;2023-07-30T08:36:10;11.23;;;2.88;;
12467;SDS011;57850;52.922;6.256;2023-07-30T08:38:36;11.57;;;2.97;;
12467;SDS011;57850;52.922;6.256;2023-07-30T08:41:03;9.98;;;3.03;;
12467;SDS011;57850;52.922;6.256;2023-07-30T08:43:29;10.43;;;2.53;;
12467;SDS011;57850;52.922;6.256;2023-07-30T08:45:56;11.93;;;2.65;;
12467;SDS011;57850;52.922;6.256;2023-07-30T08:48:25;10.38;;;2.70;;
12467;SDS011;57850;52.922;6.256;2023-07-30T08:50:51;8.73;;;2.47;;
12467;SDS011;57850;52.922;6.256;2023-07-30T08:53:22;7.55;;;2.70;;
12467;SDS011;57850;52.922;6.256;2023-07-30T08:55:50;13.65;;;3.08;;
12467;SDS011;57850;52.922;6.256;2023-07-30T08:58:17;11.10;;;2.63;;
12467;SDS011;57850;52.922;6.256;2023-07-30T09:00:44;14.05;;;2.95;;
12467;SDS011;57850;52.922;6.256;2023-07-30T09:03:13;15.80;;;3.28;;
12467;SDS011;57850;52.922;6.256;2023-07-30T09:05:44;11.73;;;2.80;;
12467;SDS011;57850;52.922;6.256;2023-07-30T09:08:11;8.70;;;2.45;;
12467;SDS011;57850;52.922;6.256;2023-07-30T09:10:38;9.60;;;2.50;;
12467;SDS011;57850;52.922;6.256;2023-07-30T09:13:05;6.97;;;2.30;;
12467;SDS011;57850;52.922;6.256;2023-07-30T09:15:33;7.18;;;1.90;;
12467;SDS011;57850;52.922;6.256;2023-07-30T09:18:02;5.28;;;2.33;;
12467;SDS011;57850;52.922;6.256;2023-07-30T09:20:33;6.28;;;1.55;;
12467;SDS011;57850;52.922;6.256;2023-07-30T09:23:04;5.63;;;2.47;;
12467;SDS011;57850;52.922;6.256;2023-07-30T09:25:31;6.07;;;2.10;;
12467;SDS011;57850;52.922;6.256;2023-07-30T09:27:57;5.20;;;1.85;;
12467;SDS011;57850;52.922;6.256;2023-07-30T09:30:24;4.88;;;1.80;;
12467;SDS011;57850;52.922;6.256;2023-07-30T09:32:52;5.50;;;2.15;;
12467;SDS011;57850;52.922;6.256;2023-07-30T09:35:20;4.05;;;1.90;;
12467;SDS011;57850;52.922;6.256;2023-07-30T09:37:49;15.07;;;2.95;;
12467;SDS011;57850;52.922;6.256;2023-07-30T09:40:19;7.03;;;2.17;;
12467;SDS011;57850;52.922;6.256;2023-07-30T09:42:46;4.78;;;2.28;;
12467;SDS011;57850;52.922;6.256;2023-07-30T09:45:17;4.13;;;2.38;;
12467;SDS011;57850;52.922;6.256;2023-07-30T09:47:47;5.28;;;2.50;;
12467;SDS011;57850;52.922;6.256;2023-07-30T09:50:14;4.28;;;1.90;;
12467;SDS011;57850;52.922;6.256;2023-07-30T09:52:41;9.07;;;2.75;;
12467;SDS011;57850;52.922;6.256;2023-07-30T09:55:09;6.13;;;2.22;;
12467;SDS011;57850;52.922;6.256;2023-07-30T09:57:37;5.22;;;1.95;;
12467;SDS011;57850;52.922;6.256;2023-07-30T10:00:05;7.38;;;2.92;;
12467;SDS011;57850;52.922;6.256;2023-07-30T10:02:36;5.53;;;2.88;;
12467;SDS011;57850;52.922;6.256;2023-07-30T10:05:06;5.32;;;2.22;;
12467;SDS011;57850;52.922;6.256;2023-07-30T10:07:36;7.40;;;2.75;;
12467;SDS011;57850;52.922;6.256;2023-07-30T10:10:06;4.40;;;2.30;;
12467;SDS011;57850;52.922;6.256;2023-07-30T10:12:35;6.95;;;2.72;;
12467;SDS011;57850;52.922;6.256;2023-07-30T10:15:07;7.70;;;2.55;;
12467;SDS011;57850;52.922;6.256;2023-07-30T10:17:34;9.55;;;3.08;;
12467;SDS011;57850;52.922;6.256;2023-07-30T10:20:20;6.05;;;2.00;;
12467;SDS011;57850;52.922;6.256;2023-07-30T10:22:51;4.22;;;2.15;;
12467;SDS011;57850;52.922;6.256;2023-07-30T10:25:20;7.80;;;2.30;;
12467;SDS011;57850;52.922;6.256;2023-07-30T10:27:49;7.70;;;2.70;;
12467;SDS011;57850;52.922;6.256;2023-07-30T10:30:18;7.75;;;2.78;;
12467;SDS011;57850;52.922;6.256;2023-07-30T10:32:59;8.23;;;3.05;;
12467;SDS011;57850;52.922;6.256;2023-07-30T10:35:40;9.05;;;2.60;;
12467;SDS011;57850;52.922;6.256;2023-07-30T10:38:17;6.68;;;2.33;;
12467;SDS011;57850;52.922;6.256;2023-07-30T10:41:02;12.20;;;3.13;;
12467;SDS011;57850;52.922;6.256;2023-07-30T10:43:37;8.68;;;2.20;;
12467;SDS011;57850;52.922;6.256;2023-07-30T10:46:07;12.32;;;3.17;;
12467;SDS011;57850;52.922;6.256;2023-07-30T10:48:35;8.48;;;2.40;;
12467;SDS011;57850;52.922;6.256;2023-07-30T10:51:04;7.00;;;2.25;;
12467;SDS011;57850;52.922;6.256;2023-07-30T10:53:32;4.72;;;2.28;;
12467;SDS011;57850;52.922;6.256;2023-07-30T10:56:00;11.23;;;2.53;;
12467;SDS011;57850;52.922;6.256;2023-07-30T10:58:29;4.25;;;2.08;;
12467;SDS011;57850;52.922;6.256;2023-07-30T11:00:57;4.63;;;2.60;;
12467;SDS011;57850;52.922;6.256;2023-07-30T11:03:25;6.53;;;2.13;;
12467;SDS011;57850;52.922;6.256;2023-07-30T11:05:52;4.75;;;2.47;;
12467;SDS011;57850;52.922;6.256;2023-07-30T11:08:21;6.28;;;2.10;;
12467;SDS011;57850;52.922;6.256;2023-07-30T11:10:57;9.18;;;2.25;;
12467;SDS011;57850;52.922;6.256;2023-07-30T11:13:24;6.00;;;2.25;;
12467;SDS011;57850;52.922;6.256;2023-07-30T11:15:51;5.80;;;1.95;;
12467;SDS011;57850;52.922;6.256;2023-07-30T11:18:17;6.32;;;2.33;;
12467;SDS011;57850;52.922;6.256;2023-07-30T11:20:45;6.18;;;2.45;;
12467;SDS011;57850;52.922;6.256;2023-07-30T11:23:18;6.82;;;1.85;;
12467;SDS011;57850;52.922;6.256;2023-07-30T11:25:47;5.93;;;2.40;;
12467;SDS011;57850;52.922;6.256;2023-07-30T11:28:15;7.68;;;1.88;;
12467;SDS011;57850;52.922;6.256;2023-07-30T11:30:54;9.10;;;2.53;;
12467;SDS011;57850;52.922;6.256;2023-07-30T11:33:22;8.43;;;2.30;;
12467;SDS011;57850;52.922;6.256;2023-07-30T11:35:50;7.25;;;2.53;;
12467;SDS011;57850;52.922;6.256;2023-07-30T11:38:17;7.05;;;2.58;;
12467;SDS011;57850;52.922;6.256;2023-07-30T11:40:45;9.90;;;2.55;;
12467;SDS011;57850;52.922;6.256;2023-07-30T11:43:12;8.50;;;2.90;;
12467;SDS011;57850;52.922;6.256;2023-07-30T11:45:39;5.75;;;2.40;;
12467;SDS011;57850;52.922;6.256;2023-07-30T11:48:06;13.18;;;3.22;;
12467;SDS011;57850;52.922;6.256;2023-07-30T11:50:47;15.88;;;3.42;;
12467;SDS011;57850;52.922;6.256;2023-07-30T11:53:16;8.50;;;2.60;;
12467;SDS011;57850;52.922;6.256;2023-07-30T11:55:43;10.98;;;2.85;;
12467;SDS011;57850;52.922;6.256;2023-07-30T11:58:11;7.00;;;2.33;;
12467;SDS011;57850;52.922;6.256;2023-07-30T12:00:40;7.40;;;2.90;;
12467;SDS011;57850;52.922;6.256;2023-07-30T12:03:10;9.77;;;2.55;;
12467;SDS011;57850;52.922;6.256;2023-07-30T12:05:38;8.10;;;2.28;;
12467;SDS011;57850;52.922;6.256;2023-07-30T12:08:06;6.53;;;2.33;;
12467;SDS011;57850;52.922;6.256;2023-07-30T12:10:44;9.77;;;2.50;;
12467;SDS011;57850;52.922;6.256;2023-07-30T12:13:15;8.35;;;2.17;;
12467;SDS011;57850;52.922;6.256;2023-07-30T12:15:46;6.57;;;2.70;;
12467;SDS011;57850;52.922;6.256;2023-07-30T12:18:17;7.20;;;2.67;;
12467;SDS011;57850;52.922;6.256;2023-07-30T12:20:44;6.32;;;2.40;;
12467;SDS011;57850;52.922;6.256;2023-07-30T12:23:10;9.40;;;2.53;;
12467;SDS011;57850;52.922;6.256;2023-07-30T12:25:37;9.80;;;2.83;;
12467;SDS011;57850;52.922;6.256;2023-07-30T12:28:06;7.25;;;2.80;;
12467;SDS011;57850;52.922;6.256;2023-07-30T12:30:32;9.90;;;2.97;;
12467;SDS011;57850;52.922;6.256;2023-07-30T12:33:00;7.63;;;2.60;;
12467;SDS011;57850;52.922;6.256;2023-07-30T12:35:27;6.72;;;2.38;;
12467;SDS011;57850;52.922;6.256;2023-07-30T12:37:53;7.13;;;2.13;;
12467;SDS011;57850;52.922;6.256;2023-07-30T12:40:20;6.53;;;2.42;;
12467;SDS011;57850;52.922;6.256;2023-07-30T12:42:47;6.85;;;2.05;;
12467;SDS011;57850;52.922;6.256;2023-07-30T12:45:15;7.22;;;2.45;;
12467;SDS011;57850;52.922;6.256;2023-07-30T12:47:41;6.63;;;2.10;;
12467;SDS011;57850;52.922;6.256;2023-07-30T12:50:10;3.85;;;1.70;;
12467;SDS011;57850;52.922;6.256;2023-07-30T12:52:37;10.65;;;2.50;;
12467;SDS011;57850;52.922;6.256;2023-07-30T12:55:04;11.18;;;2.40;;
12467;SDS011;57850;52.922;6.256;2023-07-30T12:57:31;8.38;;;2.40;;
12467;SDS011;57850;52.922;6.256;2023-07-30T12:59:58;9.18;;;2.08;;
12467;SDS011;57850;52.922;6.256;2023-07-30T13:02:26;7.95;;;2.60;;
12467;SDS011;57850;52.922;6.256;2023-07-30T13:04:52;6.75;;;3.15;;
12467;SDS011;57850;52.922;6.256;2023-07-30T13:07:19;7.93;;;2.13;;
12467;SDS011;57850;52.922;6.256;2023-07-30T13:09:45;7.55;;;2.10;;
12467;SDS011;57850;52.922;6.256;2023-07-30T13:12:12;6.65;;;2.30;;
12467;SDS011;57850;52.922;6.256;2023-07-30T13:14:40;6.30;;;2.33;;
12467;SDS011;57850;52.922;6.256;2023-07-30T13:17:06;4.15;;;1.95;;
12467;SDS011;57850;52.922;6.256;2023-07-30T13:19:34;7.72;;;2.75;;
12467;SDS011;57850;52.922;6.256;2023-07-30T13:22:01;8.65;;;2.05;;
12467;SDS011;57850;52.922;6.256;2023-07-30T13:24:27;8.25;;;2.33;;
12467;SDS011;57850;52.922;6.256;2023-07-30T13:26:56;8.60;;;2.35;;
12467;SDS011;57850;52.922;6.256;2023-07-30T13:29:23;7.50;;;2.70;;
12467;SDS011;57850;52.922;6.256;2023-07-30T13:31:49;8.52;;;1.83;;
12467;SDS011;57850;52.922;6.256;2023-07-30T13:34:16;5.85;;;2.22;;
12467;SDS011;57850;52.922;6.256;2023-07-30T13:36:44;7.18;;;2.17;;
12467;SDS011;57850;52.922;6.256;2023-07-30T13:39:10;4.95;;;2.28;;
12467;SDS011;57850;52.922;6.256;2023-07-30T13:41:37;9.82;;;1.95;;
12467;SDS011;57850;52.922;6.256;2023-07-30T13:44:03;4.15;;;1.85;;
12467;SDS011;57850;52.922;6.256;2023-07-30T13:46:30;5.30;;;1.92;;
12467;SDS011;57850;52.922;6.256;2023-07-30T13:48:57;5.30;;;2.15;;
12467;SDS011;57850;52.922;6.256;2023-07-30T13:51:23;7.72;;;2.15;;
12467;SDS011;57850;52.922;6.256;2023-07-30T13:53:53;11.68;;;2.40;;
12467;SDS011;57850;52.922;6.256;2023-07-30T13:56:19;3.47;;;1.90;;
12467;SDS011;57850;52.922;6.256;2023-07-30T13:58:46;6.22;;;1.92;;
12467;SDS011;57850;52.922;6.256;2023-07-30T14:01:13;5.63;;;1.98;;
12467;SDS011;57850;52.922;6.256;2023-07-30T14:03:40;8.02;;;2.28;;
12467;SDS011;57850;52.922;6.256;2023-07-30T14:06:07;5.10;;;1.83;;
12467;SDS011;57850;52.922;6.256;2023-07-30T14:08:33;3.58;;;1.75;;
12467;SDS011;57850;52.922;6.256;2023-07-30T14:11:01;5.82;;;2.30;;
12467;SDS011;57850;52.922;6.256;2023-07-30T14:13:28;8.57;;;2.55;;
12467;SDS011;57850;52.922;6.256;2023-07-30T14:15:55;7.05;;;2.53;;
12467;SDS011;57850;52.922;6.256;2023-07-30T14:18:21;5.32;;;2.03;;
12467;SDS011;57850;52.922;6.256;2023-07-30T14:20:48;6.75;;;1.98;;
12467;SDS011;57850;52.922;6.256;2023-07-30T14:23:14;6.53;;;2.45;;
12467;SDS011;57850;52.922;6.256;2023-07-30T14:25:41;4.88;;;2.22;;
12467;SDS011;57850;52.922;6.256;2023-07-30T14:28:09;7.85;;;1.92;;
12467;SDS011;57850;52.922;6.256;2023-07-30T14:30:36;2.20;;;1.50;;
12467;SDS011;57850;52.922;6.256;2023-07-30T14:33:09;3.95;;;1.67;;
12467;SDS011;57850;52.922;6.256;2023-07-30T14:35:35;5.38;;;1.40;;
12467;SDS011;57850;52.922;6.256;2023-07-30T14:38:03;6.32;;;2.03;;
12467;SDS011;57850;52.922;6.256;2023-07-30T14:40:29;3.15;;;1.50;;
12467;SDS011;57850;52.922;6.256;2023-07-30T14:42:56;7.10;;;1.80;;